San Antonio, Texas
Traffic Map
Current Weather Conditions
San Antonio, Texas
Broken Clouds
Broken Clouds
30°
Feels Like: 33°
Wind Chill: 30° Ceiling: 4300
Heat Index: 33° Visibility: 10mi
Dew Point: 22° Wind: 16mph
Humidity: 65% Direction: 160° (SSE)
Pressure: 29.98in Gusts: 0mph
Raw Report DataKSKF 071758Z AUTO 16014KT 10SM FEW033 BKN043 BKN050 30/22 A2998 RMK AO2 SLP144 T02960224 10301 20246 58004 $
Traffic Incident Summary
Active as of:
Severity:
Category:
InformationThere was an issue retrieving the traffic information for this location. Please try a different location or try again shortly.
Advertisements
Track Severe Weather on mobile